Time;durP1;ratioP1;P1;durP2;ratioP2;P2;SDS_P1;SDS_P2;PMS_P1;PMS_P2;Temp;Humidity;BMP_temperature;BMP_pressure;BME280_temperature;BME280_humidity;BME280_pressure;Samples;Min_cycle;Max_cycle;Signal;HPM_P1;HPM_P2
2021/01/13 00:00:24;;;;;;;15.35;1.50;;;1.90;92.50;;;;;;5018598;28;20422;-70
2021/01/13 00:02:51;;;;;;;16.00;1.85;;;1.90;92.50;;;;;;5014375;28;20037;-70
2021/01/13 00:05:18;;;;;;;15.05;2.17;;;1.90;92.30;;;;;;5021705;28;20041;-70
2021/01/13 00:07:44;;;;;;;16.40;1.45;;;2.00;92.30;;;;;;5016300;28;20172;-70
2021/01/13 00:10:11;;;;;;;14.77;1.60;;;2.00;92.20;;;;;;5015945;28;20513;-70
2021/01/13 00:12:38;;;;;;;15.68;1.63;;;2.10;92.00;;;;;;5016899;28;20095;-70
2021/01/13 00:15:08;;;;;;;14.73;2.40;;;2.10;91.90;;;;;;5022832;28;20076;-70
2021/01/13 00:17:34;;;;;;;10.93;1.67;;;2.10;91.80;;;;;;5020731;28;20030;-70
2021/01/13 00:20:00;;;;;;;16.25;1.52;;;2.10;91.80;;;;;;5018205;28;20038;-70
2021/01/13 00:22:26;;;;;;;15.45;1.40;;;2.10;91.70;;;;;;5017832;28;20712;-70
2021/01/13 00:24:52;;;;;;;15.98;2.47;;;2.10;91.70;;;;;;5021144;28;20041;-70
2021/01/13 00:27:21;;;;;;;14.82;1.90;;;2.10;91.70;;;;;;5023491;28;20041;-70
2021/01/13 00:29:51;;;;;;;13.45;1.42;;;2.00;91.70;;;;;;5022183;28;20048;-70
2021/01/13 00:32:17;;;;;;;14.73;1.88;;;2.10;91.70;;;;;;5022871;28;20816;-70
2021/01/13 00:34:43;;;;;;;11.50;1.67;;;2.00;91.70;;;;;;5022804;28;20084;-70
2021/01/13 00:37:09;;;;;;;13.75;1.85;;;2.00;91.80;;;;;;5021367;28;20075;-70
2021/01/13 00:39:35;;;;;;;19.17;1.88;;;2.00;91.90;;;;;;5023856;28;20396;-70
2021/01/13 00:42:02;;;;;;;15.88;1.38;;;2.00;91.90;;;;;;5025074;28;20041;-70
2021/01/13 00:44:28;;;;;;;12.30;1.48;;;2.40;92.10;;;;;;5023222;28;20041;-70
2021/01/13 00:46:53;;;;;;;17.35;2.15;;;2.10;92.20;;;;;;5023083;28;20061;-70
2021/01/13 00:49:19;;;;;;;11.32;1.25;;;2.00;92.20;;;;;;5022603;28;20094;-70
2021/01/13 00:51:45;;;;;;;15.88;1.13;;;2.00;92.20;;;;;;5026198;28;20064;-70
2021/01/13 00:54:12;;;;;;;17.92;2.08;;;2.20;92.10;;;;;;5020206;28;20049;-70
2021/01/13 00:56:42;;;;;;;16.30;1.20;;;2.20;92.00;;;;;;5020626;28;20037;-70
2021/01/13 00:59:10;;;;;;;14.05;1.30;;;2.50;91.90;;;;;;5019632;28;20049;-70
2021/01/13 01:01:37;;;;;;;19.48;2.90;;;2.40;92.00;;;;;;5020713;28;20499;-70
2021/01/13 01:04:04;;;;;;;16.35;2.53;;;2.40;92.20;;;;;;5020610;28;20473;-70
2021/01/13 01:06:30;;;;;;;19.23;1.73;;;2.40;92.10;;;;;;5026584;28;20041;-70
2021/01/13 01:08:55;;;;;;;17.55;1.73;;;2.40;92.20;;;;;;5024080;28;20086;-70
2021/01/13 01:11:28;;;;;;;13.52;1.33;;;2.30;92.20;;;;;;5025719;28;20971;-70
2021/01/13 01:13:54;;;;;;;12.60;1.15;;;2.30;92.20;;;;;;5019615;28;20037;-70
2021/01/13 01:16:19;;;;;;;18.73;1.83;;;2.30;92.20;;;;;;5023949;28;20479;-70
2021/01/13 01:18:45;;;;;;;17.48;1.55;;;2.20;92.20;;;;;;5018649;28;20098;-70
2021/01/13 01:21:11;;;;;;;7.55;1.10;;;2.20;92.20;;;;;;5022107;28;20045;-70
2021/01/13 01:23:37;;;;;;;8.48;0.68;;;2.30;92.20;;;;;;5014391;28;20065;-70
2021/01/13 01:26:03;;;;;;;11.90;1.30;;;2.20;92.20;;;;;;5021846;28;20048;-70
2021/01/13 01:28:29;;;;;;;14.10;2.15;;;2.20;92.10;;;;;;5018130;28;20099;-70
2021/01/13 01:30:55;;;;;;;15.23;1.20;;;2.20;92.10;;;;;;5026057;28;20882;-70
2021/01/13 01:33:21;;;;;;;9.85;0.80;;;2.10;92.10;;;;;;5022461;28;20420;-70
2021/01/13 01:35:47;;;;;;;11.55;1.05;;;2.10;92.20;;;;;;5020679;28;20095;-70
2021/01/13 01:38:13;;;;;;;8.38;0.88;;;2.10;92.20;;;;;;5019059;28;20401;-70
2021/01/13 01:40:39;;;;;;;8.85;1.10;;;2.10;92.20;;;;;;5014804;28;20434;-70
2021/01/13 01:43:05;;;;;;;12.05;1.00;;;2.10;92.20;;;;;;5020724;28;20045;-71
2021/01/13 01:45:31;;;;;;;13.30;1.15;;;2.10;92.20;;;;;;5015852;28;20103;-70
2021/01/13 01:48:03;;;;;;;13.40;0.82;;;2.10;92.20;;;;;;5022710;28;20527;-70
2021/01/13 01:50:34;;;;;;;9.65;0.95;;;2.20;92.20;;;;;;5022061;28;20055;-70
2021/01/13 01:53:20;;;;;;;6.93;0.82;;;2.20;92.30;;;;;;5017178;28;20041;-70
2021/01/13 01:55:55;;;;;;;14.73;1.25;;;2.20;92.30;;;;;;5020579;28;20045;-70
2021/01/13 01:58:26;;;;;;;9.85;1.10;;;2.30;92.30;;;;;;5027910;28;20069;-70
2021/01/13 02:00:57;;;;;;;8.50;1.00;;;2.40;92.20;;;;;;5020886;28;20033;-70
2021/01/13 02:03:26;;;;;;;11.35;1.20;;;2.30;92.20;;;;;;5020612;28;20124;-70
2021/01/13 02:06:03;;;;;;;11.35;0.90;;;2.40;92.20;;;;;;5020478;28;20041;-70
2021/01/13 02:08:36;;;;;;;8.63;1.17;;;2.40;92.20;;;;;;5019562;28;20384;-70
2021/01/13 02:11:02;;;;;;;12.52;1.10;;;2.40;92.10;;;;;;5018914;28;20227;-70
2021/01/13 02:13:28;;;;;;;12.93;1.05;;;2.40;92.10;;;;;;5018837;28;20047;-70
2021/01/13 02:15:54;;;;;;;14.15;2.15;;;2.40;92.40;;;;;;5019698;28;20069;-70
2021/01/13 02:18:22;;;;;;;8.45;1.48;;;2.50;92.10;;;;;;5021497;28;20103;-70
2021/01/13 02:20:53;;;;;;;12.45;1.17;;;2.50;92.20;;;;;;5021626;28;20052;-70
2021/01/13 02:23:29;;;;;;;8.80;0.90;;;2.50;92.20;;;;;;5017095;28;20471;-70
2021/01/13 02:26:32;;;;;;;11.07;1.27;;;2.60;92.10;;;;;;5023200;28;20045;-70
2021/01/13 02:29:22;;;;;;;13.98;1.10;;;2.60;92.10;;;;;;5018224;28;20034;-70
2021/01/13 02:32:00;;;;;;;9.93;1.00;;;2.60;92.00;;;;;;5018950;28;20076;-70
2021/01/13 02:34:41;;;;;;;12.98;1.10;;;2.70;92.10;;;;;;5020648;28;20060;-70
2021/01/13 02:37:44;;;;;;;14.60;1.20;;;2.70;92.10;;;;;;5021047;28;20038;-70
2021/01/13 02:40:13;;;;;;;18.83;1.80;;;2.70;92.10;;;;;;5022601;28;20099;-70
2021/01/13 02:42:56;;;;;;;14.10;1.17;;;2.80;92.10;;;;;;5022251;28;20487;-70
2021/01/13 02:45:23;;;;;;;11.98;1.02;;;2.90;92.40;;;;;;5019101;28;21011;-70
2021/01/13 02:47:58;;;;;;;8.15;0.90;;;2.90;92.00;;;;;;5021942;28;20288;-70
2021/01/13 02:50:30;;;;;;;12.10;2.00;;;2.90;92.20;;;;;;5027899;28;20033;-70
2021/01/13 02:53:13;;;;;;;13.10;1.52;;;2.90;92.20;;;;;;5022661;28;20146;-71
2021/01/13 02:56:04;;;;;;;16.05;2.00;;;2.90;92.20;;;;;;5014315;28;20066;-71
2021/01/13 02:58:29;;;;;;;14.32;1.08;;;2.90;92.20;;;;;;5015669;28;20498;-71
2021/01/13 03:00:55;;;;;;;14.98;2.83;;;2.80;92.60;;;;;;5019083;28;20049;-71
2021/01/13 03:03:21;;;;;;;18.23;1.33;;;2.80;92.60;;;;;;5018121;28;20387;-71
2021/01/13 03:05:47;;;;;;;17.13;0.98;;;2.70;92.80;;;;;;5022538;28;20046;-70
2021/01/13 03:08:17;;;;;;;15.82;0.93;;;2.70;92.80;;;;;;5022183;28;20080;-70
2021/01/13 03:10:47;;;;;;;8.55;0.77;;;2.70;93.30;;;;;;5021807;28;20029;-71
2021/01/13 03:13:14;;;;;;;8.75;1.25;;;2.70;93.00;;;;;;5022378;28;20045;-71
2021/01/13 03:15:40;;;;;;;11.73;1.02;;;2.60;93.20;;;;;;5019540;28;20661;-70
2021/01/13 03:18:18;;;;;;;20.73;1.20;;;2.70;93.40;;;;;;5021314;28;20048;-71
2021/01/13 03:21:04;;;;;;;10.68;0.90;;;2.60;93.40;;;;;;5023556;28;20447;-71
2021/01/13 03:23:52;;;;;;;14.00;0.98;;;2.60;93.50;;;;;;5018947;28;20033;-71
2021/01/13 03:26:23;;;;;;;13.35;0.70;;;2.70;93.60;;;;;;5021987;28;20038;-71
2021/01/13 03:28:50;;;;;;;12.48;0.90;;;2.70;93.60;;;;;;5019560;28;20041;-71
2021/01/13 03:31:24;;;;;;;8.13;0.70;;;2.70;93.70;;;;;;5018930;28;20112;-71
2021/01/13 03:34:23;;;;;;;12.63;1.17;;;2.70;93.80;;;;;;5018372;28;20042;-71
2021/01/13 03:37:06;;;;;;;13.27;1.67;;;2.70;93.80;;;;;;5022710;28;20045;-71
2021/01/13 03:39:35;;;;;;;14.73;1.20;;;2.80;93.80;;;;;;5020590;28;20076;-71
2021/01/13 03:42:11;;;;;;;9.23;0.90;;;2.70;93.70;;;;;;5016467;28;20388;-72
2021/01/13 03:44:41;;;;;;;19.83;1.10;;;2.80;93.60;;;;;;5018204;28;20048;-71
2021/01/13 03:47:15;;;;;;;17.65;2.53;;;2.80;93.70;;;;;;5019105;28;20038;-71
2021/01/13 03:49:51;;;;;;;9.40;1.00;;;2.80;93.70;;;;;;5021073;28;20075;-71
2021/01/13 03:52:17;;;;;;;8.93;1.00;;;2.90;93.80;;;;;;5021420;28;20063;-71
2021/01/13 03:54:43;;;;;;;14.05;1.60;;;2.90;93.90;;;;;;5019753;28;20040;-71
2021/01/13 03:57:10;;;;;;;9.63;0.95;;;2.90;93.80;;;;;;5022605;28;20040;-71
2021/01/13 03:59:55;;;;;;;8.40;1.00;;;3.00;93.80;;;;;;5024500;28;20046;-71
2021/01/13 04:02:28;;;;;;;10.75;0.90;;;2.90;93.70;;;;;;5025011;28;20069;-71
2021/01/13 04:05:18;;;;;;;10.93;0.95;;;2.90;93.70;;;;;;5021677;28;20046;-71
2021/01/13 04:07:45;;;;;;;10.48;1.02;;;2.90;93.60;;;;;;5025390;28;20037;-71
2021/01/13 04:10:13;;;;;;;13.77;1.00;;;2.80;93.60;;;;;;5017887;28;20064;-71
2021/01/13 04:13:07;;;;;;;11.50;1.15;;;2.80;93.60;;;;;;5022667;28;20057;-71
2021/01/13 04:15:41;;;;;;;11.85;1.20;;;2.80;93.80;;;;;;5019862;28;20030;-71
2021/01/13 04:18:10;;;;;;;12.07;1.02;;;2.80;93.80;;;;;;5021870;28;20045;-71
2021/01/13 04:20:36;;;;;;;13.88;1.13;;;2.70;93.90;;;;;;5025836;28;20120;-71
2021/01/13 04:23:04;;;;;;;8.60;0.77;;;2.70;94.00;;;;;;5021889;28;20585;-71
2021/01/13 04:25:30;;;;;;;13.55;1.10;;;2.70;93.90;;;;;;5025836;28;20076;-71
2021/01/13 04:27:56;;;;;;;12.05;1.02;;;2.80;93.90;;;;;;5026210;28;20045;-71
2021/01/13 04:30:27;;;;;;;10.60;0.85;;;2.80;94.10;;;;;;5023589;28;20065;-71
2021/01/13 04:32:55;;;;;;;11.50;1.13;;;2.80;94.10;;;;;;5023262;28;20037;-71
2021/01/13 04:35:22;;;;;;;8.88;0.82;;;2.80;94.00;;;;;;5018177;28;20057;-71
2021/01/13 04:37:53;;;;;;;9.40;0.80;;;2.90;94.00;;;;;;5018356;28;20050;-71
2021/01/13 04:40:33;;;;;;;10.68;0.75;;;2.90;94.00;;;;;;5022966;28;20041;-71
2021/01/13 04:43:07;;;;;;;7.68;0.60;;;2.90;93.90;;;;;;5020369;28;20073;-71
2021/01/13 04:45:36;;;;;;;10.52;0.70;;;2.90;93.80;;;;;;5025310;28;20046;-71
2021/01/13 04:48:05;;;;;;;9.88;0.93;;;3.00;93.70;;;;;;5025907;28;20399;-71
2021/01/13 04:50:48;;;;;;;8.55;0.93;;;3.00;93.70;;;;;;5024794;28;20095;-71
2021/01/13 04:53:20;;;;;;;7.57;1.02;;;3.00;93.80;;;;;;5022320;28;20046;-71
2021/01/13 04:55:54;;;;;;;10.40;0.75;;;3.00;93.70;;;;;;5023408;28;20033;-71
2021/01/13 04:58:20;;;;;;;7.53;0.65;;;3.10;93.90;;;;;;5018378;28;20041;-71
2021/01/13 05:01:03;;;;;;;6.45;0.47;;;3.20;93.90;;;;;;5021706;28;20045;-71
2021/01/13 05:03:44;;;;;;;8.65;0.60;;;3.30;93.70;;;;;;5018591;28;20033;-71
2021/01/13 05:06:46;;;;;;;7.80;0.68;;;3.20;93.60;;;;;;5022176;28;20037;-71
2021/01/13 05:09:12;;;;;;;7.18;0.80;;;3.20;93.70;;;;;;5022235;28;20092;-71
2021/01/13 05:11:43;;;;;;;3.55;0.70;;;3.20;93.40;;;;;;5023696;28;20041;-71
2021/01/13 05:14:10;;;;;;;5.30;0.52;;;3.20;93.30;;;;;;5023540;28;20048;-71
2021/01/13 05:16:54;;;;;;;4.72;0.57;;;3.10;93.30;;;;;;5023658;28;20030;-71
2021/01/13 05:19:32;;;;;;;8.68;0.70;;;3.10;93.30;;;;;;5023505;28;20048;-71
2021/01/13 05:21:59;;;;;;;8.52;0.70;;;3.00;93.40;;;;;;5022920;28;20451;-71
2021/01/13 05:24:27;;;;;;;8.90;1.38;;;3.00;93.50;;;;;;5019653;28;21704;-71
2021/01/13 05:27:02;;;;;;;6.55;0.50;;;3.00;93.60;;;;;;5023343;28;20514;-71
2021/01/13 05:29:36;;;;;;;7.47;0.68;;;3.00;93.70;;;;;;5018438;28;20399;-71
2021/01/13 05:32:03;;;;;;;8.15;1.38;;;3.00;93.80;;;;;;5020450;28;20052;-71
2021/01/13 05:34:34;;;;;;;6.55;0.90;;;3.00;93.80;;;;;;5020761;28;20120;-71
2021/01/13 05:37:06;;;;;;;5.68;0.50;;;3.00;93.90;;;;;;5020644;28;20403;-71
2021/01/13 05:39:32;;;;;;;6.57;0.93;;;3.00;93.80;;;;;;5021959;28;20051;-71
2021/01/13 05:42:04;;;;;;;9.88;0.93;;;3.00;93.70;;;;;;5022562;28;20041;-71
2021/01/13 05:44:30;;;;;;;11.95;1.17;;;3.00;93.70;;;;;;5019397;28;20053;-71
2021/01/13 05:47:05;;;;;;;7.03;0.90;;;3.00;93.70;;;;;;5020727;28;20057;-71
2021/01/13 05:49:31;;;;;;;6.80;0.70;;;2.90;93.60;;;;;;5018634;28;20071;-71
2021/01/13 05:52:07;;;;;;;12.95;1.48;;;2.90;93.60;;;;;;5016587;28;20049;-71
2021/01/13 05:54:34;;;;;;;;;;;2.90;93.70;;;;;;5014961;28;20037;-71
2021/01/13 05:57:02;;;;;;;10.13;0.73;;;2.90;93.80;;;;;;5018558;28;19932;-71
2021/01/13 05:59:29;;;;;;;11.57;0.93;;;2.90;93.80;;;;;;5020067;28;20123;-71
2021/01/13 06:01:56;;;;;;;15.70;1.45;;;2.80;93.70;;;;;;5021368;28;20040;-71
2021/01/13 06:04:23;;;;;;;4.82;0.77;;;2.80;93.70;;;;;;5024054;28;20484;-71
2021/01/13 06:06:58;;;;;;;8.80;0.60;;;2.80;93.80;;;;;;5023885;28;20045;-71
2021/01/13 06:09:24;;;;;;;11.13;1.65;;;2.80;93.80;;;;;;5022535;28;20045;-71
2021/01/13 06:11:52;;;;;;;7.60;0.93;;;2.80;93.90;;;;;;5020123;28;20115;-71
2021/01/13 06:14:26;;;;;;;9.95;0.80;;;2.80;93.80;;;;;;5020139;28;20087;-71
2021/01/13 06:16:53;;;;;;;9.02;0.85;;;2.80;94.00;;;;;;5022863;28;20061;-71
2021/01/13 06:19:20;;;;;;;9.90;1.05;;;2.80;94.00;;;;;;5021718;28;20096;-71
2021/01/13 06:21:47;;;;;;;13.15;0.85;;;2.80;94.10;;;;;;5019122;28;20038;-71
2021/01/13 06:24:14;;;;;;;6.30;0.85;;;2.80;94.00;;;;;;5019693;28;20045;-71
2021/01/13 06:26:54;;;;;;;9.18;1.08;;;2.80;94.00;;;;;;5018692;28;20095;-71
2021/01/13 06:29:41;;;;;;;6.65;1.08;;;2.80;93.90;;;;;;5020525;28;20124;-71
2021/01/13 06:32:26;;;;;;;10.13;0.80;;;2.80;93.90;;;;;;5022385;28;20076;-71
2021/01/13 06:35:15;;;;;;;8.73;1.08;;;2.70;93.80;;;;;;5023714;28;20064;-71
2021/01/13 06:37:48;;;;;;;11.32;0.75;;;2.70;93.80;;;;;;4990979;28;20049;-71
2021/01/13 06:40:16;;;;;;;9.20;0.98;;;2.70;93.80;;;;;;5020438;28;20423;-70
2021/01/13 06:42:42;;;;;;;6.93;0.57;;;2.80;93.90;;;;;;5024991;28;20036;-71
2021/01/13 06:45:09;;;;;;;8.95;0.77;;;2.80;93.90;;;;;;5020638;28;20456;-71
2021/01/13 06:47:51;;;;;;;13.77;1.05;;;2.80;94.00;;;;;;5016414;28;20393;-71
2021/01/13 06:50:30;;;;;;;7.53;0.52;;;2.80;94.00;;;;;;5021827;28;20073;-71
2021/01/13 06:52:57;;;;;;;6.57;0.88;;;2.90;94.00;;;;;;5017664;28;20097;-71
2021/01/13 06:55:31;;;;;;;7.68;1.15;;;2.90;93.90;;;;;;5021605;28;20045;-71
2021/01/13 06:58:10;;;;;;;9.15;0.90;;;2.90;94.00;;;;;;5022251;28;20037;-71
2021/01/13 07:00:36;;;;;;;6.13;0.75;;;2.90;93.90;;;;;;5018475;28;20049;-71
2021/01/13 07:03:18;;;;;;;4.97;1.20;;;2.90;93.90;;;;;;5017463;28;20048;-71
2021/01/13 07:05:44;;;;;;;7.72;0.77;;;2.90;93.80;;;;;;5024900;28;20033;-70
2021/01/13 07:08:09;;;;;;;10.77;0.93;;;2.90;93.80;;;;;;5024507;28;20038;-71
2021/01/13 07:10:37;;;;;;;11.73;1.08;;;2.90;93.90;;;;;;5016185;28;20042;-71
2021/01/13 07:13:08;;;;;;;10.10;0.95;;;2.90;93.90;;;;;;5019746;28;20042;-71
2021/01/13 07:15:34;;;;;;;6.78;1.00;;;2.90;93.80;;;;;;5019148;28;20045;-71
2021/01/13 07:18:03;;;;;;;9.00;0.80;;;2.90;93.70;;;;;;5017030;28;20041;-71
2021/01/13 07:20:29;;;;;;;8.43;0.70;;;2.90;93.70;;;;;;5021111;28;20070;-71
2021/01/13 07:22:57;;;;;;;8.05;0.88;;;2.80;93.60;;;;;;5026379;28;20091;-71
2021/01/13 07:25:23;;;;;;;10.85;0.85;;;2.80;93.60;;;;;;5025796;28;20104;-71
2021/01/13 07:27:50;;;;;;;8.85;0.93;;;2.80;93.60;;;;;;5023396;28;20095;-71
2021/01/13 07:30:18;;;;;;;8.07;1.00;;;2.80;93.60;;;;;;5025783;28;20133;-71
2021/01/13 07:32:57;;;;;;;8.00;0.95;;;2.70;93.60;;;;;;5027078;28;20041;-71
2021/01/13 07:35:28;;;;;;;12.15;2.35;;;2.70;93.60;;;;;;5025287;28;20395;-71
2021/01/13 07:37:59;;;;;;;10.50;0.70;;;2.80;93.70;;;;;;5026794;28;20398;-71
2021/01/13 07:40:27;;;;;;;10.60;1.73;;;2.80;93.70;;;;;;5036812;28;20037;-71
2021/01/13 07:43:05;;;;;;;25.98;1.85;;;2.80;93.80;;;;;;5024538;28;20048;-72
2021/01/13 07:45:39;;;;;;;54.65;3.70;;;2.80;93.80;;;;;;5024029;28;20384;-72
2021/01/13 07:48:16;;;;;;;16.90;1.42;;;2.90;93.70;;;;;;5027537;28;20057;-72
2021/01/13 07:50:44;;;;;;;6.65;0.70;;;2.90;93.80;;;;;;5033073;28;20088;-71
2021/01/13 07:53:22;;;;;;;9.13;0.82;;;3.00;93.80;;;;;;5030505;28;20557;-72
2021/01/13 07:55:59;;;;;;;15.40;1.10;;;2.90;93.80;;;;;;5029715;28;20033;-72
2021/01/13 07:58:30;;;;;;;19.90;1.67;;;2.90;94.00;;;;;;5026574;28;20040;-72
2021/01/13 08:01:00;;;;;;;12.20;1.20;;;3.00;94.10;;;;;;5022643;28;20037;-72
2021/01/13 08:03:45;;;;;;;17.25;1.65;;;3.00;94.20;;;;;;5023024;28;20120;-72
2021/01/13 08:06:28;;;;;;;10.68;1.02;;;3.10;94.20;;;;;;5026093;28;20045;-72
2021/01/13 08:09:10;;;;;;;17.63;1.55;;;3.20;93.90;;;;;;5024244;28;20046;-72
2021/01/13 08:12:05;;;;;;;11.23;1.92;;;3.20;93.80;;;;;;5029077;28;20463;-72
2021/01/13 08:15:08;;;;;;;35.50;3.65;;;3.20;93.80;;;;;;5023583;28;20080;-72
2021/01/13 08:18:14;;;;;;;15.15;1.17;;;3.20;93.80;;;;;;5024183;28;20116;-72
2021/01/13 08:21:24;;;;;;;29.67;1.60;;;3.20;93.70;;;;;;5024679;28;20038;-72
2021/01/13 08:24:09;;;;;;;23.45;2.13;;;3.20;93.70;;;;;;5028175;28;20049;-72
2021/01/13 08:26:38;;;;;;;11.30;1.10;;;3.10;93.70;;;;;;5018829;28;20033;-72
2021/01/13 08:29:05;;;;;;;15.85;1.40;;;3.30;93.80;;;;;;5023919;28;20120;-72
2021/01/13 08:31:31;;;;;;;11.15;1.10;;;3.10;93.70;;;;;;5019229;28;20041;-72
2021/01/13 08:34:07;;;;;;;13.27;1.42;;;3.00;93.70;;;;;;5024874;28;20045;-72
2021/01/13 08:36:37;;;;;;;13.77;1.30;;;3.10;93.60;;;;;;5026359;28;20042;-72
2021/01/13 08:39:14;;;;;;;11.77;1.50;;;3.10;93.90;;;;;;5025321;28;20038;-72
2021/01/13 08:41:44;;;;;;;12.80;1.85;;;3.00;93.50;;;;;;5023249;28;20411;-72
2021/01/13 08:44:13;;;;;;;7.22;1.08;;;3.00;93.50;;;;;;5028147;28;20034;-72
2021/01/13 08:47:03;;;;;;;6.82;0.60;;;3.00;93.40;;;;;;5024664;28;20090;-72
2021/01/13 08:49:31;;;;;;;9.23;0.88;;;3.10;93.40;;;;;;5026080;28;20045;-72
2021/01/13 08:52:18;;;;;;;10.00;1.10;;;3.10;93.30;;;;;;5026970;28;20578;-72
2021/01/13 08:54:56;;;;;;;8.57;0.95;;;3.20;93.30;;;;;;5023198;28;20044;-72
2021/01/13 08:57:23;;;;;;;11.82;1.67;;;3.30;93.30;;;;;;5024389;28;20061;-72
2021/01/13 08:59:49;;;;;;;13.93;1.20;;;3.30;93.30;;;;;;5029353;28;20643;-72
2021/01/13 09:02:23;;;;;;;12.05;1.05;;;3.40;93.20;;;;;;5024894;28;20049;-72
2021/01/13 09:04:55;;;;;;;8.20;1.02;;;3.50;93.10;;;;;;5022671;28;20060;-72
2021/01/13 09:07:25;;;;;;;15.23;1.20;;;3.50;93.00;;;;;;5025471;28;20495;-72
2021/01/13 09:10:07;;;;;;;14.10;2.17;;;3.50;93.00;;;;;;5023210;28;20045;-71
2021/01/13 09:12:37;;;;;;;19.27;1.65;;;3.50;93.10;;;;;;5023533;28;20065;-72
2021/01/13 09:15:10;;;;;;;12.75;1.52;;;3.60;93.30;;;;;;5022808;28;20487;-72
2021/01/13 09:17:40;;;;;;;11.23;1.13;;;3.70;93.30;;;;;;5025240;28;20494;-72
2021/01/13 09:20:17;;;;;;;21.20;1.45;;;3.70;93.40;;;;;;5026538;28;20105;-72
2021/01/13 09:22:44;;;;;;;23.55;2.03;;;3.70;93.60;;;;;;5028332;28;20365;-72
2021/01/13 09:25:31;;;;;;;13.88;1.98;;;3.70;93.60;;;;;;5022062;28;20124;-73
2021/01/13 09:28:02;;;;;;;10.43;1.48;;;3.70;93.70;;;;;;5022649;28;20053;-72
2021/01/13 09:30:41;;;;;;;16.02;1.90;;;3.60;93.70;;;;;;5023044;28;20073;-72
2021/01/13 09:33:13;;;;;;;18.60;1.75;;;3.60;93.80;;;;;;5022802;28;20052;-73
2021/01/13 09:35:44;;;;;;;16.90;1.83;;;3.70;93.90;;;;;;5023883;28;20059;-72
2021/01/13 09:38:13;;;;;;;14.85;1.73;;;3.70;94.00;;;;;;5024566;28;20048;-72
2021/01/13 09:40:55;;;;;;;13.95;1.25;;;3.80;94.10;;;;;;5022804;28;20049;-72
2021/01/13 09:43:38;;;;;;;10.75;2.35;;;3.90;93.90;;;;;;5022818;28;20098;-72
2021/01/13 09:46:28;;;;;;;15.20;1.45;;;4.00;94.00;;;;;;5024107;28;20037;-73
2021/01/13 09:49:09;;;;;;;19.65;1.55;;;4.10;93.90;;;;;;5024355;28;20046;-72
2021/01/13 09:51:38;;;;;;;11.05;1.30;;;4.20;93.60;;;;;;5023162;28;20061;-72
2021/01/13 09:54:04;;;;;;;12.65;1.45;;;4.20;93.50;;;;;;5022628;28;20064;-72
2021/01/13 09:56:33;;;;;;;14.18;1.45;;;4.30;93.50;;;;;;5020576;28;20658;-72
2021/01/13 09:59:05;;;;;;;13.45;1.52;;;4.40;93.30;;;;;;5022023;28;20582;-72
2021/01/13 10:01:33;;;;;;;11.43;1.77;;;4.40;93.00;;;;;;5023103;28;20034;-72
2021/01/13 10:04:03;;;;;;;14.60;1.45;;;4.50;92.90;;;;;;5021195;28;20092;-72
2021/01/13 10:06:30;;;;;;;9.77;1.40;;;4.50;93.00;;;;;;5023068;28;20112;-72
2021/01/13 10:08:59;;;;;;;14.27;1.35;;;4.60;92.80;;;;;;5021660;28;20033;-72
2021/01/13 10:11:27;;;;;;;13.05;1.83;;;4.60;92.50;;;;;;5022946;28;20068;-72
2021/01/13 10:14:02;;;;;;;12.25;1.38;;;4.60;92.40;;;;;;5022179;28;20042;-72
2021/01/13 10:16:29;;;;;;;13.95;1.10;;;4.60;92.40;;;;;;5021785;28;20052;-72
2021/01/13 10:19:01;;;;;;;14.07;1.13;;;4.60;92.50;;;;;;5021893;28;20041;-72
2021/01/13 10:21:37;;;;;;;12.77;1.42;;;4.70;92.70;;;;;;5022562;28;20029;-72
2021/01/13 10:24:08;;;;;;;11.63;1.67;;;4.90;92.60;;;;;;5019767;28;20135;-73
2021/01/13 10:26:42;;;;;;;9.95;1.30;;;5.10;92.50;;;;;;5023231;28;20041;-73
2021/01/13 10:29:09;;;;;;;14.18;2.10;;;5.20;92.20;;;;;;5025258;28;20452;-73
2021/01/13 10:31:35;;;;;;;10.35;1.40;;;5.50;92.20;;;;;;5022402;28;20044;-73
2021/01/13 10:34:01;;;;;;;16.20;1.63;;;5.60;91.80;;;;;;5021868;28;20049;-73
2021/01/13 10:36:37;;;;;;;13.23;1.80;;;5.70;91.50;;;;;;5022089;28;20113;-73
2021/01/13 10:39:06;;;;;;;15.30;2.47;;;5.90;91.50;;;;;;5021158;28;20400;-73
2021/01/13 10:41:34;;;;;;;13.77;1.55;;;6.00;91.30;;;;;;5023827;28;20044;-73
2021/01/13 10:44:16;;;;;;;9.13;1.20;;;6.20;91.20;;;;;;5035216;28;20115;-73
2021/01/13 10:46:53;;;;;;;9.15;2.00;;;6.40;90.60;;;;;;5019842;28;20394;-72
2021/01/13 10:49:21;;;;;;;9.70;1.05;;;6.50;90.30;;;;;;5022275;28;20650;-73
2021/01/13 10:51:51;;;;;;;8.13;1.50;;;6.50;90.40;;;;;;5023521;28;20049;-73
2021/01/13 10:54:20;;;;;;;9.15;0.88;;;6.50;89.30;;;;;;5025167;28;20116;-72
2021/01/13 10:56:54;;;;;;;11.30;1.30;;;6.30;89.40;;;;;;5024678;28;20095;-72
2021/01/13 10:59:21;;;;;;;10.05;1.10;;;6.20;89.60;;;;;;5025490;28;20299;-72
2021/01/13 11:01:52;;;;;;;10.63;0.98;;;6.10;89.30;;;;;;5021797;28;20655;-73
2021/01/13 11:04:29;;;;;;;5.20;0.65;;;5.90;89.90;;;;;;5022660;28;20046;-72
2021/01/13 11:07:14;;;;;;;9.40;0.75;;;5.80;89.80;;;;;;5023785;28;20037;-72
2021/01/13 11:09:42;;;;;;;9.63;1.20;;;5.80;90.40;;;;;;5027845;28;20037;-73
2021/01/13 11:12:10;;;;;;;7.75;1.35;;;5.80;90.50;;;;;;5028022;28;20125;-73
2021/01/13 11:14:38;;;;;;;10.50;1.98;;;5.80;90.70;;;;;;5025122;28;20388;-72
2021/01/13 11:17:11;;;;;;;7.20;0.93;;;5.90;90.90;;;;;;5024227;28;20124;-73
2021/01/13 11:19:39;;;;;;;17.13;1.20;;;6.00;90.90;;;;;;5025091;28;20134;-73
2021/01/13 11:22:05;;;;;;;9.98;1.33;;;6.10;91.00;;;;;;5023940;28;20036;-73
2021/01/13 11:24:33;;;;;;;9.45;0.70;;;6.10;90.90;;;;;;5019433;28;20029;-73
2021/01/13 11:27:05;;;;;;;11.50;1.63;;;6.00;91.00;;;;;;5023234;28;20073;-73
2021/01/13 11:29:34;;;;;;;7.72;0.88;;;5.90;91.00;;;;;;5019030;28;20042;-73
2021/01/13 11:32:02;;;;;;;11.60;1.23;;;5.90;91.30;;;;;;5021979;28;20060;-73
2021/01/13 11:34:28;;;;;;;12.30;1.30;;;5.80;91.30;;;;;;5020497;28;20129;-73
2021/01/13 11:37:19;;;;;;;10.93;0.88;;;5.90;91.70;;;;;;5022660;28;20041;-73
2021/01/13 11:40:02;;;;;;;9.63;1.23;;;6.00;91.50;;;;;;5022652;28;20087;-73
2021/01/13 11:42:50;;;;;;;25.42;1.88;;;6.20;91.80;;;;;;5022945;28;20187;-73
2021/01/13 11:45:20;;;;;;;13.10;2.30;;;6.40;91.50;;;;;;5025894;28;20103;-73
2021/01/13 11:47:51;;;;;;;10.65;1.42;;;6.70;91.00;;;;;;5018736;28;20067;-73
2021/01/13 11:50:22;;;;;;;10.07;1.33;;;6.90;90.30;;;;;;5017922;28;20053;-73
2021/01/13 11:52:57;;;;;;;9.15;1.05;;;7.10;89.90;;;;;;5021281;28;20465;-73
2021/01/13 11:55:30;;;;;;;8.90;0.95;;;7.30;89.10;;;;;;5021719;28;20037;-72
2021/01/13 11:57:56;;;;;;;4.55;1.10;;;7.50;89.20;;;;;;5025250;28;20149;-73
2021/01/13 12:00:24;;;;;;;11.95;0.98;;;7.60;88.00;;;;;;5020913;28;20045;-73
2021/01/13 12:03:00;;;;;;;6.60;0.90;;;7.60;86.90;;;;;;5017773;28;20091;-73
2021/01/13 12:05:30;;;;;;;10.75;1.20;;;7.60;87.50;;;;;;5021141;28;20160;-73
2021/01/13 12:08:08;;;;;;;5.28;0.90;;;7.70;85.60;;;;;;5024857;28;20045;-73
2021/01/13 12:10:41;;;;;;;11.35;1.90;;;7.80;85.20;;;;;;5028964;28;20395;-73
2021/01/13 12:13:14;;;;;;;12.93;1.70;;;7.90;85.50;;;;;;5022088;28;20152;-73
2021/01/13 12:15:57;;;;;;;11.02;1.30;;;7.90;84.80;;;;;;5026498;28;20563;-73
2021/01/13 12:18:31;;;;;;;7.45;0.73;;;7.90;83.50;;;;;;5023855;28;20117;-73
2021/01/13 12:21:11;;;;;;;11.60;1.20;;;7.80;82.10;;;;;;5025642;28;20034;-73
2021/01/13 12:23:38;;;;;;;5.78;0.60;;;7.70;83.60;;;;;;5026626;28;20100;-73
2021/01/13 12:26:27;;;;;;;5.05;1.00;;;7.70;83.40;;;;;;5030845;28;20040;-73
2021/01/13 12:28:55;;;;;;;10.82;1.40;;;7.70;82.20;;;;;;5021409;28;20480;-73
2021/01/13 12:31:22;;;;;;;8.02;1.20;;;7.60;83.00;;;;;;5027878;28;20033;-73
2021/01/13 12:33:50;;;;;;;11.27;1.35;;;7.60;83.40;;;;;;5022295;28;20092;-73
2021/01/13 12:36:29;;;;;;;7.43;1.13;;;7.60;83.30;;;;;;5025397;28;20038;-72
2021/01/13 12:38:58;;;;;;;10.15;1.42;;;7.60;83.70;;;;;;5024064;28;20030;-73
2021/01/13 12:41:29;;;;;;;8.45;1.13;;;7.50;82.70;;;;;;5027048;28;20095;-73
2021/01/13 12:43:56;;;;;;;14.77;2.03;;;7.40;83.20;;;;;;5025488;28;20737;-73
2021/01/13 12:46:24;;;;;;;14.57;1.42;;;7.20;83.40;;;;;;5023341;28;20035;-73
2021/01/13 12:48:50;;;;;;;7.25;1.15;;;7.10;83.50;;;;;;5027913;28;20044;-73
2021/01/13 12:51:16;;;;;;;9.70;1.63;;;7.00;84.10;;;;;;5023496;28;20045;-73
2021/01/13 12:53:42;;;;;;;11.48;1.40;;;6.90;84.80;;;;;;5024615;28;20033;-73
2021/01/13 12:56:26;;;;;;;14.88;1.58;;;6.90;84.80;;;;;;5024316;28;20481;-73
2021/01/13 12:58:52;;;;;;;7.70;0.70;;;6.80;84.60;;;;;;5026088;28;20228;-73
2021/01/13 13:01:18;;;;;;;9.45;1.10;;;6.80;85.00;;;;;;5027887;28;20040;-73
2021/01/13 13:03:45;;;;;;;14.63;1.50;;;6.80;85.00;;;;;;5022068;28;20037;-73
2021/01/13 13:06:12;;;;;;;14.15;1.45;;;6.70;84.40;;;;;;5026635;28;20045;-73
2021/01/13 13:08:38;;;;;;;10.85;1.33;;;6.60;84.70;;;;;;5026722;28;20039;-73
2021/01/13 13:11:10;;;;;;;16.88;1.50;;;6.60;85.50;;;;;;5023032;28;20049;-73
2021/01/13 13:13:35;;;;;;;12.50;1.63;;;6.60;85.30;;;;;;5022425;28;20052;-73
2021/01/13 13:16:02;;;;;;;11.38;1.60;;;6.50;84.80;;;;;;5022474;28;20042;-73